LIED/DCI METAR and TAF weather

Enter ICAO airport designator
Station Type Date Time Source
LIED METAR 2022/12/04 03:55 UTC NOAA

LIED 040355Z 34002KT 9999 FEW010 09/08 Q1011


Station Type Date Time Source
LIED Decoded METAR 2022/12/04 03:55 UTC NOAA

Decimomannu, Italy (LIED) 39-21N 008-58E 28M
Dec 03, 2022 - 10:55 PM EST / 2022.12.04 0355 UTC
Wind: from the NNW (340 degrees) at 2 MPH (2 KT):0
Visibility: greater than 7 mile(s):0
Sky conditions: mostly clear
Temperature: 48 F (9 C)
Dew Point: 46 F (8 C)
Relative Humidity: 93%
Pressure (altimeter): 29.85 in. Hg (1011 hPa)
ob: LIED 040355Z 34002KT 9999 FEW010 09/08 Q1011
cycle: 4

Station Type Date Time Source
LIED TAF 2021/01/17 03:30 UTC NOAA

TAF TAF LIED 170500Z 1703/1715 03003KT 9999 FEW020 SCT040
TEMPO 1706/1710 RA SCT020 BKN060
BECMG 1708/1710 33018KT
TEMPO 1710/1715 33025G35KT
TEMPO 1713/1715 RA

Example: see airport list